createdAt,value
2023-02-22T00:01:35.644Z,98012.97
2023-02-22T00:04:06.914Z,98018.72
2023-02-22T00:06:34.066Z,98024.19
2023-02-22T00:09:02.617Z,98037.84
2023-02-22T00:11:31.656Z,98037.84
2023-02-22T00:13:58.828Z,98035.22
2023-02-22T00:16:26.677Z,98036.41
2023-02-22T00:18:53.965Z,98040.03
2023-02-22T00:21:21.093Z,98049.31
2023-02-22T00:23:48.836Z,98051.59
2023-02-22T00:26:21.550Z,98059.81
2023-02-22T00:28:50.641Z,98039.38
2023-02-22T00:31:18.761Z,98068.38
2023-02-22T00:33:45.961Z,98067.41
2023-02-22T00:36:13.780Z,98070.75
2023-02-22T00:38:41.618Z,98076.81
2023-02-22T00:41:09.014Z,98073.34
2023-02-22T00:43:35.972Z,98083.75
2023-02-22T00:46:02.992Z,98053.31
2023-02-22T00:48:29.806Z,98075.72
2023-02-22T00:50:56.655Z,98073.56
2023-02-22T00:53:25.170Z,98091.31
2023-02-22T00:55:53.321Z,98091.09
2023-02-22T00:58:20.881Z,98090.75
2023-02-22T01:00:48.322Z,98081.59
2023-02-22T01:03:19.692Z,98093.69
2023-02-22T01:05:46.718Z,98101.03
2023-02-22T01:08:15.727Z,98109.91
2023-02-22T01:10:43.152Z,98099.75
2023-02-22T01:13:12.401Z,98096.63
2023-02-22T01:15:44.892Z,98101.81
2023-02-22T01:18:12.816Z,98110.78
2023-02-22T01:20:39.698Z,98106.03
2023-02-22T01:23:08.141Z,98121.50
2023-02-22T01:25:35.773Z,98118.22
2023-02-22T01:28:05.138Z,98124.22
2023-02-22T01:30:34.859Z,98124.63
2023-02-22T01:33:04.480Z,98129.69
2023-02-22T01:35:34.497Z,98115.53
2023-02-22T01:38:01.403Z,98123.09
2023-02-22T01:40:34.639Z,98131.13
2023-02-22T01:43:11.062Z,98137.38
2023-02-22T01:46:01.486Z,98132.81
2023-02-22T01:48:33.513Z,98138.47
2023-02-22T01:51:18.572Z,98141.50
2023-02-22T01:53:58.986Z,98155.56
2023-02-22T01:56:27.900Z,98158.56
2023-02-22T01:58:59.990Z,98162.25
2023-02-22T02:01:52.035Z,98156.66
2023-02-22T02:04:25.622Z,98164.00
2023-02-22T02:06:54.507Z,98169.41
2023-02-22T02:09:42.555Z,98170.69
2023-02-22T02:12:12.605Z,98168.00
2023-02-22T02:14:42.345Z,98167.03
2023-02-22T02:17:11.511Z,98183.66
2023-02-22T02:19:47.220Z,98155.38
2023-02-22T02:22:26.835Z,98186.59
2023-02-22T02:25:18.283Z,98197.25
2023-02-22T02:28:08.694Z,98202.91
2023-02-22T02:30:41.821Z,98202.34
2023-02-22T02:33:22.279Z,98203.53
2023-02-22T02:36:02.218Z,98207.31
2023-02-22T02:38:35.219Z,98215.50
2023-02-22T02:41:15.925Z,98213.34
2023-02-22T02:44:15.926Z,98222.28
2023-02-22T02:46:57.608Z,98225.53
2023-02-22T02:49:46.288Z,98235.34
2023-02-22T02:52:14.992Z,98228.78
2023-02-22T02:54:43.147Z,98215.75
2023-02-22T02:57:10.247Z,98240.53
2023-02-22T02:59:38.442Z,98226.34
2023-02-22T03:02:25.011Z,98238.78
2023-02-22T03:05:16.237Z,98234.34
2023-02-22T03:07:50.488Z,98229.78
2023-02-22T03:10:45.653Z,98244.91
2023-02-22T03:13:24.810Z,98251.78
2023-02-22T03:16:02.756Z,98247.47
2023-02-22T03:18:34.067Z,98249.72
2023-02-22T03:21:00.823Z,98256.50
2023-02-22T03:24:01.038Z,98256.75
2023-02-22T03:26:58.873Z,98270.56
2023-02-22T03:29:28.550Z,98261.72
2023-02-22T03:32:01.902Z,98271.66
2023-02-22T03:34:53.077Z,98272.09
2023-02-22T03:37:29.033Z,98282.03
2023-02-22T03:39:58.041Z,98279.78
2023-02-22T03:42:29.580Z,98289.19
2023-02-22T03:44:59.995Z,98278.38
2023-02-22T03:47:40.142Z,98292.84
2023-02-22T03:50:16.354Z,98302.94
2023-02-22T03:52:45.158Z,98304.22
2023-02-22T03:55:13.134Z,98303.75
2023-02-22T03:57:43.119Z,98301.16
2023-02-22T04:00:14.858Z,98298.41
2023-02-22T04:02:41.902Z,98313.44
2023-02-22T04:05:09.147Z,98316.66
2023-02-22T04:07:35.903Z,98325.34
2023-02-22T04:10:03.422Z,98323.38
2023-02-22T04:12:30.278Z,98327.09
2023-02-22T04:14:56.980Z,98332.91
2023-02-22T04:17:23.715Z,98333.66
2023-02-22T04:19:51.389Z,98323.09
2023-02-22T04:22:18.431Z,98328.19
2023-02-22T04:24:45.479Z,98323.84
2023-02-22T04:27:12.362Z,98331.81
2023-02-22T04:29:39.132Z,98335.41
2023-02-22T04:32:06.441Z,98337.88
2023-02-22T04:34:33.275Z,98346.47
2023-02-22T04:37:00.195Z,98359.66
2023-02-22T04:39:26.980Z,98348.94
2023-02-22T04:41:53.817Z,98347.94
2023-02-22T04:44:20.607Z,98366.31
2023-02-22T04:46:47.462Z,98371.06
2023-02-22T04:49:14.334Z,98362.84
2023-02-22T04:51:41.687Z,98361.63
2023-02-22T04:54:08.816Z,98370.19
2023-02-22T04:56:35.662Z,98378.28
2023-02-22T04:59:02.415Z,98360.91
2023-02-22T05:01:34.062Z,98351.94
2023-02-22T05:04:03.091Z,98369.56
2023-02-22T05:06:29.969Z,98360.91
2023-02-22T05:08:56.955Z,98365.63
2023-02-22T05:11:24.327Z,98368.06
2023-02-22T05:13:51.332Z,98371.06
2023-02-22T05:16:18.324Z,98378.41
2023-02-22T05:18:45.089Z,98375.16
2023-02-22T05:21:13.612Z,98378.41
2023-02-22T05:23:41.484Z,98389.19
2023-02-22T05:26:10.704Z,98382.97
2023-02-22T05:28:38.218Z,98400.88
2023-02-22T05:31:05.197Z,98402.47
2023-02-22T05:33:37.925Z,98405.81
2023-02-22T05:36:09.112Z,98415.75
2023-02-22T05:38:43.334Z,98411.25
2023-02-22T05:41:14.469Z,98402.59
2023-02-22T05:43:41.707Z,98418.00
2023-02-22T05:46:08.461Z,98412.66
2023-02-22T05:48:35.277Z,98418.50
2023-02-22T05:51:03.857Z,98408.06
2023-02-22T05:53:30.707Z,98417.00
2023-02-22T05:55:57.530Z,98424.81
2023-02-22T05:58:24.321Z,98416.97
2023-02-22T06:00:51.047Z,98432.59
2023-02-22T06:03:17.764Z,98428.13
2023-02-22T06:05:44.634Z,98431.84
2023-02-22T06:08:11.511Z,98439.41
2023-02-22T06:10:38.227Z,98437.66
2023-02-22T06:13:06.654Z,98441.78
2023-02-22T06:15:33.592Z,98444.13
2023-02-22T06:18:01.075Z,98444.00
2023-02-22T06:20:29.573Z,98449.75
2023-02-22T06:22:58.703Z,98447.72
2023-02-22T06:25:28.318Z,98452.41
2023-02-22T06:27:55.112Z,98443.84
2023-02-22T06:30:24.454Z,98452.66
2023-02-22T06:32:51.445Z,98455.13
2023-02-22T06:35:18.789Z,98444.66
2023-02-22T06:37:45.800Z,98458.56
2023-02-22T06:40:13.531Z,98457.09
2023-02-22T06:42:40.476Z,98465.06
2023-02-22T06:45:08.356Z,98469.78
2023-02-22T06:47:41.733Z,98466.31
2023-02-22T06:50:19.774Z,98462.34
2023-02-22T06:52:47.955Z,98464.44
2023-02-22T06:55:26.361Z,98465.94
2023-02-22T06:57:53.258Z,98482.84
2023-02-22T07:00:22.080Z,98480.19
2023-02-22T07:02:49.084Z,98484.16
2023-02-22T07:05:18.342Z,98484.28
2023-02-22T07:07:45.266Z,98493.53
2023-02-22T07:10:25.330Z,98482.59
2023-02-22T07:12:55.413Z,98497.97
2023-02-22T07:15:26.249Z,98496.69
2023-02-22T07:17:53.589Z,98494.16
2023-02-22T07:20:21.542Z,98492.75
2023-02-22T07:22:49.558Z,98503.44
2023-02-22T07:25:16.563Z,98492.00
2023-02-22T07:27:43.713Z,98499.81
2023-02-22T07:30:21.072Z,98503.28
2023-02-22T07:32:47.952Z,98511.28
2023-02-22T07:35:21.571Z,98505.47
2023-02-22T07:37:48.399Z,98514.69
2023-02-22T07:40:16.757Z,98511.69
2023-02-22T07:43:03.753Z,98514.00
2023-02-22T07:45:33.941Z,98519.19
2023-02-22T07:48:02.786Z,98518.09
2023-02-22T07:50:32.238Z,98537.13
2023-02-22T07:53:02.547Z,98536.50
2023-02-22T07:55:31.130Z,98532.56
2023-02-22T07:58:00.580Z,98532.63
2023-02-22T08:00:32.900Z,98538.47
2023-02-22T08:03:01.701Z,98535.44
2023-02-22T08:05:29.842Z,98539.16
2023-02-22T08:07:56.971Z,98539.59
2023-02-22T08:10:25.634Z,98529.03
2023-02-22T08:12:53.730Z,98537.13
2023-02-22T08:15:24.444Z,98533.75
2023-02-22T08:17:51.643Z,98547.59
2023-02-22T08:20:19.335Z,98541.34
2023-02-22T08:22:47.476Z,98547.25
2023-02-22T08:25:15.904Z,98546.97
2023-02-22T08:27:43.913Z,98558.88
2023-02-22T08:30:18.204Z,98556.38
2023-02-22T08:32:48.718Z,98563.97
2023-02-22T08:35:20.380Z,98556.09
2023-02-22T08:37:49.926Z,98563.84
2023-02-22T08:40:21.310Z,98567.84
2023-02-22T08:42:48.185Z,98574.38
2023-02-22T08:45:15.153Z,98569.75
2023-02-22T08:47:42.356Z,98569.75
2023-02-22T08:50:15.022Z,98574.78
2023-02-22T08:52:42.338Z,98582.47
2023-02-22T08:55:09.078Z,98577.91
2023-02-22T08:57:35.847Z,98581.25
2023-02-22T09:00:05.142Z,98573.13
2023-02-22T09:02:32.254Z,98581.25
2023-02-22T09:04:59.000Z,98590.06
2023-02-22T09:07:25.836Z,98584.88
2023-02-22T09:09:52.541Z,98582.94
2023-02-22T09:12:19.336Z,98584.69
2023-02-22T09:14:46.179Z,98598.56
2023-02-22T09:17:13.102Z,98587.72
2023-02-22T09:19:39.938Z,98605.19
2023-02-22T09:22:06.815Z,98603.44
2023-02-22T09:24:33.591Z,98597.16
2023-02-22T09:27:01.136Z,98608.34
2023-02-22T09:29:28.091Z,98600.13
2023-02-22T09:31:56.129Z,98604.91
2023-02-22T09:34:29.608Z,98606.22
2023-02-22T09:36:58.181Z,98603.38
2023-02-22T09:39:25.471Z,98594.25
2023-02-22T09:41:58.746Z,98600.56
2023-02-22T09:44:43.905Z,98603.69
2023-02-22T09:47:18.334Z,98604.03
2023-02-22T09:50:00.141Z,98602.03
2023-02-22T09:52:32.415Z,98615.13
2023-02-22T09:55:20.662Z,98609.06
2023-02-22T09:57:47.646Z,98603.34
2023-02-22T10:00:20.161Z,98600.53
2023-02-22T10:03:15.780Z,98603.81
2023-02-22T10:05:46.432Z,98599.25
2023-02-22T10:08:16.275Z,98614.97
2023-02-22T10:10:46.209Z,98607.66
2023-02-22T10:13:39.296Z,98607.66
2023-02-22T10:16:24.204Z,98608.94
2023-02-22T10:19:02.655Z,98618.06
2023-02-22T10:21:48.705Z,98621.09
2023-02-22T10:24:24.732Z,98599.44
2023-02-22T10:26:54.191Z,98606.16
2023-02-22T10:29:53.099Z,98618.44
2023-02-22T10:32:31.373Z,98607.47
2023-02-22T10:35:00.796Z,98607.69
2023-02-22T10:37:33.873Z,98623.41
2023-02-22T10:40:20.433Z,98620.78
2023-02-22T10:42:47.579Z,98616.47
2023-02-22T10:45:36.696Z,98634.69
2023-02-22T10:48:11.671Z,98583.56
2023-02-22T10:50:41.221Z,98594.59
2023-02-22T10:53:10.282Z,98567.97
2023-02-22T10:55:57.918Z,98544.53
2023-02-22T10:58:24.927Z,98497.13
2023-02-22T11:00:51.795Z,98506.69
2023-02-22T11:03:21.892Z,98457.94
2023-02-22T11:05:50.003Z,98501.16
2023-02-22T11:08:30.859Z,98436.25
2023-02-22T11:11:01.952Z,98434.41
2023-02-22T11:13:39.238Z,98402.38
2023-02-22T11:16:25.539Z,98409.47
2023-02-22T11:19:02.874Z,98446.81
2023-02-22T11:21:32.649Z,98438.03
2023-02-22T11:24:08.553Z,98428.44
2023-02-22T11:26:45.259Z,98460.81
2023-02-22T11:29:19.776Z,98423.69
2023-02-22T11:31:49.372Z,98416.72
2023-02-22T11:34:33.440Z,98430.38
2023-02-22T11:37:18.374Z,98463.13
2023-02-22T11:39:45.835Z,98452.47
2023-02-22T11:42:25.011Z,98435.97
2023-02-22T11:45:23.925Z,98481.56
2023-02-22T11:48:02.387Z,98493.47
2023-02-22T11:50:31.007Z,98542.78
2023-02-22T11:53:22.125Z,98557.13
2023-02-22T11:56:28.381Z,98567.59
2023-02-22T11:59:31.792Z,98519.81
2023-02-22T12:02:28.552Z,98522.72
2023-02-22T12:05:08.298Z,98513.19
2023-02-22T12:08:05.245Z,98493.91
2023-02-22T12:11:10.247Z,98500.56
2023-02-22T12:13:51.585Z,98475.63
2023-02-22T12:16:45.490Z,98432.38
2023-02-22T12:19:22.240Z,98447.03
2023-02-22T12:21:55.795Z,98436.22
2023-02-22T12:24:27.785Z,98354.88
2023-02-22T12:27:06.470Z,98374.59
2023-02-22T12:29:43.755Z,98423.59
2023-02-22T12:32:42.652Z,98481.84
2023-02-22T12:35:37.417Z,98496.63
2023-02-22T12:38:23.016Z,98493.00
2023-02-22T12:40:58.073Z,98484.66
2023-02-22T12:43:32.657Z,98507.66
2023-02-22T12:46:02.337Z,98519.03
2023-02-22T12:48:41.420Z,98529.03
2023-02-22T12:51:19.096Z,98526.59
2023-02-22T12:53:55.786Z,98531.81
2023-02-22T12:56:25.599Z,98499.59
2023-02-22T12:59:12.606Z,98544.59
2023-02-22T13:01:44.178Z,98575.53
2023-02-22T13:04:20.465Z,98606.72
2023-02-22T13:07:10.120Z,98610.16
2023-02-22T13:09:55.829Z,98617.59
2023-02-22T13:12:27.913Z,98576.84
2023-02-22T13:15:17.198Z,98587.09
2023-02-22T13:18:02.800Z,98619.84
2023-02-22T13:20:37.384Z,98628.44
2023-02-22T13:23:40.274Z,98679.94
2023-02-22T13:26:43.073Z,98677.88
2023-02-22T13:29:17.242Z,98693.91
2023-02-22T13:32:15.504Z,98731.13
2023-02-22T13:35:35.607Z,98757.22
2023-02-22T13:38:15.785Z,98769.63
2023-02-22T13:41:01.434Z,98805.69
2023-02-22T13:44:04.890Z,98829.53
2023-02-22T13:46:50.483Z,98877.34
2023-02-22T13:49:32.479Z,98913.63
2023-02-22T13:52:02.689Z,98921.03
2023-02-22T13:54:47.225Z,98940.22
2023-02-22T13:57:22.899Z,98947.91
2023-02-22T14:00:15.554Z,98989.50
2023-02-22T14:03:02.963Z,98987.22
2023-02-22T14:05:51.586Z,99002.00
2023-02-22T14:08:36.973Z,98987.22
2023-02-22T14:11:32.099Z,99000.59
2023-02-22T14:14:01.074Z,98985.38
2023-02-22T14:16:29.415Z,98947.06
2023-02-22T14:19:17.293Z,98908.88
2023-02-22T14:22:05.511Z,98902.84
2023-02-22T14:24:45.586Z,98925.34
2023-02-22T14:27:14.545Z,98917.50
2023-02-22T14:30:00.490Z,98929.63
2023-02-22T14:32:35.716Z,98890.91
2023-02-22T14:35:25.656Z,98881.47
2023-02-22T14:37:56.499Z,98880.38
2023-02-22T14:40:36.417Z,98857.94
2023-02-22T14:43:06.339Z,98881.69
2023-02-22T14:45:36.666Z,98874.28
2023-02-22T14:48:40.457Z,98861.00
2023-02-22T14:51:29.232Z,98883.00
2023-02-22T14:54:02.016Z,98877.78
2023-02-22T14:56:41.227Z,98880.16
2023-02-22T14:59:18.833Z,98872.88
2023-02-22T15:02:05.697Z,98877.13
2023-02-22T15:04:36.141Z,98868.00
2023-02-22T15:07:19.641Z,98866.00
2023-02-22T15:09:48.385Z,98888.75
2023-02-22T15:12:31.158Z,98863.59
2023-02-22T15:15:27.518Z,98876.47
2023-02-22T15:17:58.701Z,98881.88
2023-02-22T15:20:25.994Z,98877.97
2023-02-22T15:23:00.185Z,98898.41
2023-02-22T15:25:30.709Z,98892.16
2023-02-22T15:28:03.924Z,98896.69
2023-02-22T15:30:34.233Z,98896.69
2023-02-22T15:33:24.205Z,98893.88
2023-02-22T15:35:58.017Z,98906.94
2023-02-22T15:38:30.577Z,98904.19
2023-02-22T15:41:03.404Z,98898.66
2023-02-22T15:43:32.764Z,98909.31
2023-02-22T15:46:00.923Z,98897.47
2023-02-22T15:48:30.985Z,98895.41
2023-02-22T15:51:14.097Z,98914.09
2023-02-22T15:53:49.570Z,98912.16
2023-02-22T15:56:26.581Z,98915.63
2023-02-22T15:59:08.441Z,98917.78
2023-02-22T16:01:42.630Z,98923.56
2023-02-22T16:04:21.869Z,98921.19
2023-02-22T16:06:50.154Z,98916.63
2023-02-22T16:09:26.162Z,98915.41
2023-02-22T16:12:22.561Z,98928.69
2023-02-22T16:14:52.405Z,98926.69
2023-02-22T16:17:25.742Z,98924.31
2023-02-22T16:19:53.492Z,98922.78
2023-02-22T16:22:35.858Z,98911.06
2023-02-22T16:25:18.966Z,98924.13
2023-02-22T16:27:52.662Z,98921.38
2023-02-22T16:30:25.850Z,98922.59
2023-02-22T16:32:56.194Z,98922.69
2023-02-22T16:35:28.918Z,98925.19
2023-02-22T16:38:01.974Z,98947.59
2023-02-22T16:40:32.325Z,98942.91
2023-02-22T16:43:01.917Z,98929.63
2023-02-22T16:45:32.128Z,98939.53
2023-02-22T16:48:00.361Z,98936.50
2023-02-22T16:50:27.104Z,98939.44
2023-02-22T16:52:58.624Z,98943.13
2023-02-22T16:55:25.776Z,98949.13
2023-02-22T16:58:01.058Z,98951.38
2023-02-22T17:00:31.663Z,98952.91
2023-02-22T17:03:03.879Z,98958.66
2023-02-22T17:05:32.584Z,98959.88
2023-02-22T17:07:59.391Z,98972.25
2023-02-22T17:10:26.867Z,98960.63
2023-02-22T17:12:53.830Z,98970.31
2023-02-22T17:15:26.494Z,98973.03
2023-02-22T17:17:54.495Z,98982.81
2023-02-22T17:20:40.200Z,98989.13
2023-02-22T17:23:09.107Z,98978.13
2023-02-22T17:25:42.185Z,98988.34
2023-02-22T17:28:09.456Z,98986.94
2023-02-22T17:30:37.768Z,98994.88
2023-02-22T17:33:07.035Z,98987.78
2023-02-22T17:35:37.146Z,98998.56
2023-02-22T17:38:06.258Z,99004.78
2023-02-22T17:40:34.421Z,98992.41
2023-02-22T17:43:01.918Z,98993.47
2023-02-22T17:45:29.803Z,98999.31
2023-02-22T17:47:59.109Z,98980.84
2023-02-22T17:50:26.813Z,99005.84
2023-02-22T17:52:54.480Z,99000.72
2023-02-22T17:55:22.267Z,99005.63
2023-02-22T17:57:58.302Z,98993.03
2023-02-22T18:00:33.500Z,99011.63
2023-02-22T18:03:02.949Z,99014.88
2023-02-22T18:05:35.408Z,99003.56
2023-02-22T18:08:02.189Z,99009.34
2023-02-22T18:10:28.968Z,99011.47
2023-02-22T18:12:56.825Z,98994.75
2023-02-22T18:15:28.784Z,98999.22
2023-02-22T18:17:56.688Z,99008.66
2023-02-22T18:20:31.225Z,99003.44
2023-02-22T18:22:59.489Z,99005.84
2023-02-22T18:25:27.324Z,99013.91
2023-02-22T18:27:55.082Z,99008.22
2023-02-22T18:30:22.052Z,99001.09
2023-02-22T18:32:48.847Z,99006.72
2023-02-22T18:35:15.645Z,99015.63
2023-02-22T18:37:42.621Z,99010.84
2023-02-22T18:40:10.642Z,99025.09
2023-02-22T18:42:39.675Z,99025.09
2023-02-22T18:45:07.954Z,99016.41
2023-02-22T18:47:39.920Z,99003.59
2023-02-22T18:50:07.909Z,99014.75
2023-02-22T18:52:44.807Z,99030.63
2023-02-22T18:55:17.594Z,99025.63
2023-02-22T18:57:45.142Z,99030.19
2023-02-22T19:00:15.304Z,99038.44
2023-02-22T19:02:43.617Z,99036.94
2023-02-22T19:05:12.280Z,99044.53
2023-02-22T19:07:39.467Z,99042.81
2023-02-22T19:10:07.239Z,99041.94
2023-02-22T19:12:37.076Z,99049.66
2023-02-22T19:15:04.104Z,99048.44
2023-02-22T19:17:32.705Z,99050.44
2023-02-22T19:19:59.503Z,99045.44
2023-02-22T19:22:26.337Z,99051.72
2023-02-22T19:24:54.268Z,99049.09
2023-02-22T19:27:21.777Z,99046.72
2023-02-22T19:29:49.502Z,99051.25
2023-02-22T19:32:17.572Z,99056.25
2023-02-22T19:34:44.801Z,99049.97
2023-02-22T19:37:13.135Z,99045.94
2023-02-22T19:39:42.402Z,99057.34
2023-02-22T19:42:10.270Z,99059.31
2023-02-22T19:44:37.569Z,99056.72
2023-02-22T19:47:09.037Z,99066.25
2023-02-22T19:49:41.046Z,99063.22
2023-02-22T19:52:07.559Z,99063.00
2023-02-22T19:54:34.326Z,99064.53
2023-02-22T19:57:01.180Z,99056.78
2023-02-22T19:59:28.248Z,99063.19
2023-02-22T20:01:56.194Z,99071.66
2023-02-22T20:04:24.228Z,99067.75
2023-02-22T20:06:57.537Z,99067.75
2023-02-22T20:09:43.206Z,99067.09
2023-02-22T20:12:10.359Z,99070.81
2023-02-22T20:14:37.343Z,99071.25
2023-02-22T20:17:05.035Z,99082.56
2023-02-22T20:19:32.033Z,99083.84
2023-02-22T20:22:00.356Z,99081.66
2023-02-22T20:24:27.811Z,99092.75
2023-02-22T20:26:57.169Z,99073.00
2023-02-22T20:29:29.770Z,99079.50
2023-02-22T20:31:58.347Z,99092.75
2023-02-22T20:34:32.373Z,99086.25
2023-02-22T20:37:00.383Z,99097.56
2023-02-22T20:39:27.354Z,99098.41
2023-02-22T20:41:54.621Z,99090.78
2023-02-22T20:44:22.299Z,99094.03
2023-02-22T20:46:49.279Z,99098.28
2023-02-22T20:49:18.929Z,99101.09
2023-02-22T20:51:46.861Z,99106.09
2023-02-22T20:54:14.481Z,99100.22
2023-02-22T20:56:43.762Z,99097.06
2023-02-22T20:59:16.369Z,99109.44
2023-02-22T21:01:43.618Z,99117.59
2023-02-22T21:04:11.520Z,99104.47
2023-02-22T21:06:40.400Z,99112.06
2023-02-22T21:09:13.852Z,99113.34
2023-02-22T21:11:41.060Z,99110.00
2023-02-22T21:14:09.935Z,99118.59
2023-02-22T21:16:37.511Z,99123.13
2023-02-22T21:19:07.347Z,99121.38
2023-02-22T21:21:35.820Z,99130.63
2023-02-22T21:24:02.922Z,99127.03
2023-02-22T21:26:32.103Z,99130.94
2023-02-22T21:29:00.694Z,99130.50
2023-02-22T21:31:28.580Z,99122.66
2023-02-22T21:33:58.163Z,99140.03
2023-02-22T21:36:26.080Z,99132.19
2023-02-22T21:38:55.873Z,99136.94
2023-02-22T21:41:27.570Z,99147.19
2023-02-22T21:43:56.774Z,99137.69
2023-02-22T21:46:29.142Z,99147.41
2023-02-22T21:48:58.591Z,99144.56
2023-02-22T21:51:32.086Z,99148.28
2023-02-22T21:54:07.580Z,99133.72
2023-02-22T21:56:38.066Z,99157.69
2023-02-22T21:59:11.655Z,99158.22
2023-02-22T22:01:46.945Z,99158.44
2023-02-22T22:04:19.565Z,99153.69
2023-02-22T22:06:49.153Z,99164.97
2023-02-22T22:09:18.677Z,99169.44
2023-02-22T22:11:58.344Z,99163.44
2023-02-22T22:14:26.368Z,99152.81
2023-02-22T22:16:58.133Z,99168.97
2023-02-22T22:19:33.643Z,99158.69
2023-02-22T22:22:01.475Z,99171.94
2023-02-22T22:24:32.015Z,99177.94
2023-02-22T22:27:03.582Z,99171.22
2023-02-22T22:29:30.958Z,99168.19
2023-02-22T22:31:57.937Z,99179.25
2023-02-22T22:34:24.654Z,99178.00
2023-02-22T22:36:51.497Z,99176.13
2023-02-22T22:39:21.062Z,99181.78
2023-02-22T22:41:48.330Z,99175.16
2023-02-22T22:44:16.367Z,99179.81
2023-02-22T22:46:43.947Z,99193.03
2023-02-22T22:49:13.359Z,99188.03
2023-02-22T22:51:41.133Z,99182.91
2023-02-22T22:54:09.511Z,99181.41
2023-02-22T22:56:38.116Z,99191.06
2023-02-22T22:59:09.797Z,99183.31
2023-02-22T23:01:44.517Z,99184.03
2023-02-22T23:04:16.519Z,99191.63
2023-02-22T23:06:49.886Z,99188.88
2023-02-22T23:09:19.844Z,99186.50
2023-02-22T23:11:53.328Z,99189.00
2023-02-22T23:14:24.157Z,99188.13
2023-02-22T23:16:59.975Z,99185.38
2023-02-22T23:19:26.787Z,99181.38
2023-02-22T23:21:53.605Z,99182.03
2023-02-22T23:24:21.242Z,99183.69
2023-02-22T23:26:51.045Z,99194.00
2023-02-22T23:29:19.877Z,99194.91
2023-02-22T23:31:48.628Z,99192.16
2023-02-22T23:34:21.208Z,99192.88
2023-02-22T23:36:48.687Z,99194.13
2023-02-22T23:39:20.541Z,99197.28
2023-02-22T23:41:55.525Z,99201.16
2023-02-22T23:44:22.811Z,99213.38
2023-02-22T23:46:55.011Z,99215.75
2023-02-22T23:49:26.490Z,99212.00
2023-02-22T23:51:53.559Z,99216.00
2023-02-22T23:54:21.649Z,99221.38
2023-02-22T23:56:58.021Z,99216.63
2023-02-22T23:59:26.882Z,99215.50
